sensor_id;sensor_type;location;lat;lon;timestamp;pressure;altitude;pressure_sealevel;temperature;humidity
77153;BME280;66124;51.146;17.072;2023-02-11T00:03:35;101730.20;;;1.23;71.40
77153;BME280;66124;51.146;17.072;2023-02-11T00:06:06;101723.39;;;1.24;71.39
77153;BME280;66124;51.146;17.072;2023-02-11T00:08:36;101719.67;;;1.26;71.33
77153;BME280;66124;51.146;17.072;2023-02-11T00:11:06;101719.94;;;1.27;71.35
77153;BME280;66124;51.146;17.072;2023-02-11T00:13:36;101715.39;;;1.28;71.39
77153;BME280;66124;51.146;17.072;2023-02-11T00:16:09;101704.65;;;1.22;71.22
77153;BME280;66124;51.146;17.072;2023-02-11T00:18:39;101710.83;;;1.29;71.17
77153;BME280;66124;51.146;17.072;2023-02-11T00:21:10;101709.20;;;1.30;71.12
77153;BME280;66124;51.146;17.072;2023-02-11T00:23:40;101710.89;;;1.31;71.14
77153;BME280;66124;51.146;17.072;2023-02-11T00:26:13;101706.88;;;1.31;71.08
77153;BME280;66124;51.146;17.072;2023-02-11T00:28:44;101705.79;;;1.32;71.28
77153;BME280;66124;51.146;17.072;2023-02-11T00:31:14;101704.02;;;1.33;71.09
77153;BME280;66124;51.146;17.072;2023-02-11T00:33:45;101699.48;;;1.34;70.97
77153;BME280;66124;51.146;17.072;2023-02-11T00:36:16;101693.74;;;1.34;71.00
77153;BME280;66124;51.146;17.072;2023-02-11T00:38:47;101691.92;;;1.36;70.99
77153;BME280;66124;51.146;17.072;2023-02-11T00:41:17;101690.86;;;1.36;70.99
77153;BME280;66124;51.146;17.072;2023-02-11T00:43:47;101674.66;;;1.28;71.08
77153;BME280;66124;51.146;17.072;2023-02-11T00:46:17;101694.75;;;1.38;70.93
77153;BME280;66124;51.146;17.072;2023-02-11T00:48:46;101700.31;;;1.37;71.28
77153;BME280;66124;51.146;17.072;2023-02-11T00:51:15;101698.68;;;1.38;71.00
77153;BME280;66124;51.146;17.072;2023-02-11T00:53:45;101689.77;;;1.40;71.05
77153;BME280;66124;51.146;17.072;2023-02-11T00:56:14;101682.88;;;1.39;70.85
77153;BME280;66124;51.146;17.072;2023-02-11T00:58:43;101669.51;;;1.31;71.09
77153;BME280;66124;51.146;17.072;2023-02-11T01:01:13;101676.07;;;1.37;70.97
77153;BME280;66124;51.146;17.072;2023-02-11T01:03:42;101673.98;;;1.37;71.00
77153;BME280;66124;51.146;17.072;2023-02-11T01:06:12;101668.21;;;1.35;71.00
77153;BME280;66124;51.146;17.072;2023-02-11T01:08:42;101671.39;;;1.34;71.03
77153;BME280;66124;51.146;17.072;2023-02-11T01:11:15;101668.39;;;1.32;71.16
77153;BME280;66124;51.146;17.072;2023-02-11T01:13:44;101664.20;;;1.30;71.19
77153;BME280;66124;51.146;17.072;2023-02-11T01:16:12;101661.35;;;1.28;71.17
77153;BME280;66124;51.146;17.072;2023-02-11T01:26:13;101636.84;;;1.23;71.28
77153;BME280;66124;51.146;17.072;2023-02-11T01:28:43;101628.43;;;1.19;71.36
77153;BME280;66124;51.146;17.072;2023-02-11T01:31:12;101627.11;;;1.17;71.49
77153;BME280;66124;51.146;17.072;2023-02-11T01:33:42;101624.09;;;1.16;71.52
77153;BME280;66124;51.146;17.072;2023-02-11T01:36:12;101621.77;;;1.14;71.57
77153;BME280;66124;51.146;17.072;2023-02-11T01:38:41;101613.65;;;1.14;71.53
77153;BME280;66124;51.146;17.072;2023-02-11T01:41:13;101611.63;;;1.13;71.63
77153;BME280;66124;51.146;17.072;2023-02-11T01:43:44;101606.88;;;1.14;71.51
77153;BME280;66124;51.146;17.072;2023-02-11T01:46:31;101595.55;;;1.15;71.63
77153;BME280;66124;51.146;17.072;2023-02-11T01:49:04;101594.89;;;1.18;71.42
77153;BME280;66124;51.146;17.072;2023-02-11T01:51:38;101580.06;;;1.19;71.54
77153;BME280;66124;51.146;17.072;2023-02-11T01:54:09;101580.05;;;1.23;71.73
77153;BME280;66124;51.146;17.072;2023-02-11T01:56:43;101575.02;;;1.26;71.34
77153;BME280;66124;51.146;17.072;2023-02-11T01:59:17;101570.63;;;1.30;71.22
77153;BME280;66124;51.146;17.072;2023-02-11T02:01:52;101577.32;;;1.34;71.13
77153;BME280;66124;51.146;17.072;2023-02-11T02:04:26;101579.34;;;1.38;71.05
77153;BME280;66124;51.146;17.072;2023-02-11T02:07:00;101572.46;;;1.43;70.89
77153;BME280;66124;51.146;17.072;2023-02-11T02:09:42;101561.66;;;1.48;70.88
77153;BME280;66124;51.146;17.072;2023-02-11T02:12:12;101561.13;;;1.53;70.46
77153;BME280;66124;51.146;17.072;2023-02-11T02:14:42;101559.54;;;1.57;70.56
77153;BME280;66124;51.146;17.072;2023-02-11T02:17:17;101555.86;;;1.61;70.39
77153;BME280;66124;51.146;17.072;2023-02-11T02:20:26;101544.56;;;1.64;70.44
77153;BME280;66124;51.146;17.072;2023-02-11T02:23:14;101537.29;;;1.67;70.30
77153;BME280;66124;51.146;17.072;2023-02-11T02:29:00;101522.80;;;1.68;70.04
77153;BME280;66124;51.146;17.072;2023-02-11T02:31:58;101530.08;;;1.74;69.81
77153;BME280;66124;51.146;17.072;2023-02-11T02:34:39;101525.96;;;1.76;69.77
77153;BME280;66124;51.146;17.072;2023-02-11T02:37:09;101524.61;;;1.78;69.63
77153;BME280;66124;51.146;17.072;2023-02-11T02:42:24;101515.71;;;1.85;69.50
77153;BME280;66124;51.146;17.072;2023-02-11T02:44:56;101515.38;;;1.85;69.44
77153;BME280;66124;51.146;17.072;2023-02-11T02:47:24;101511.48;;;1.86;68.94
77153;BME280;66124;51.146;17.072;2023-02-11T02:49:54;101507.55;;;1.85;69.28
77153;BME280;66124;51.146;17.072;2023-02-11T02:52:32;101498.48;;;1.86;69.07
77153;BME280;66124;51.146;17.072;2023-02-11T02:55:14;101494.60;;;1.87;69.02
77153;BME280;66124;51.146;17.072;2023-02-11T02:58:04;101489.64;;;1.86;68.82
77153;BME280;66124;51.146;17.072;2023-02-11T03:00:41;101482.48;;;1.87;68.97
77153;BME280;66124;51.146;17.072;2023-02-11T03:03:24;101482.79;;;1.88;68.66
77153;BME280;66124;51.146;17.072;2023-02-11T03:06:00;101472.26;;;1.87;68.61
77153;BME280;66124;51.146;17.072;2023-02-11T03:08:33;101471.39;;;1.87;68.69
77153;BME280;66124;51.146;17.072;2023-02-11T03:11:08;101466.08;;;1.86;68.82
77153;BME280;66124;51.146;17.072;2023-02-11T03:13:38;101460.10;;;1.85;68.75
77153;BME280;66124;51.146;17.072;2023-02-11T03:16:12;101469.34;;;1.84;68.68
77153;BME280;66124;51.146;17.072;2023-02-11T03:18:45;101470.98;;;1.82;68.78
77153;BME280;66124;51.146;17.072;2023-02-11T03:21:17;101461.72;;;1.81;68.57
77153;BME280;66124;51.146;17.072;2023-02-11T03:23:51;101472.58;;;1.79;68.63
77153;BME280;66124;51.146;17.072;2023-02-11T03:26:27;101481.77;;;1.79;68.53
77153;BME280;66124;51.146;17.072;2023-02-11T03:29:05;101477.51;;;1.78;68.43
77153;BME280;66124;51.146;17.072;2023-02-11T03:31:43;101473.74;;;1.77;68.53
77153;BME280;66124;51.146;17.072;2023-02-11T03:34:18;101475.66;;;1.77;68.56
77153;BME280;66124;51.146;17.072;2023-02-11T03:36:54;101479.34;;;1.76;68.79
77153;BME280;66124;51.146;17.072;2023-02-11T03:39:30;101480.77;;;1.76;68.70
77153;BME280;66124;51.146;17.072;2023-02-11T03:42:03;101477.02;;;1.75;68.68
77153;BME280;66124;51.146;17.072;2023-02-11T03:44:37;101480.51;;;1.74;68.65
77153;BME280;66124;51.146;17.072;2023-02-11T03:47:10;101485.70;;;1.74;68.64
77153;BME280;66124;51.146;17.072;2023-02-11T03:49:43;101482.23;;;1.72;68.77
77153;BME280;66124;51.146;17.072;2023-02-11T03:52:17;101481.52;;;1.72;68.66
77153;BME280;66124;51.146;17.072;2023-02-11T03:54:46;101472.20;;;1.71;68.80
77153;BME280;66124;51.146;17.072;2023-02-11T04:03:27;101461.52;;;1.73;68.68
77153;BME280;66124;51.146;17.072;2023-02-11T04:05:57;101458.39;;;1.70;68.74
77153;BME280;66124;51.146;17.072;2023-02-11T04:08:26;101453.73;;;1.70;68.56
77153;BME280;66124;51.146;17.072;2023-02-11T04:10:55;101444.56;;;1.70;68.61
77153;BME280;66124;51.146;17.072;2023-02-11T04:13:25;101438.58;;;1.68;68.55
77153;BME280;66124;51.146;17.072;2023-02-11T04:15:54;101428.45;;;1.67;68.71
77153;BME280;66124;51.146;17.072;2023-02-11T04:18:24;101430.06;;;1.66;68.66
77153;BME280;66124;51.146;17.072;2023-02-11T04:20:53;101421.84;;;1.64;68.89
77153;BME280;66124;51.146;17.072;2023-02-11T04:23:22;101418.77;;;1.64;68.90
77153;BME280;66124;51.146;17.072;2023-02-11T04:25:52;101415.41;;;1.62;69.12
77153;BME280;66124;51.146;17.072;2023-02-11T04:28:21;101409.95;;;1.60;68.93
77153;BME280;66124;51.146;17.072;2023-02-11T04:30:51;101403.95;;;1.59;69.06
77153;BME280;66124;51.146;17.072;2023-02-11T04:33:20;101397.88;;;1.59;68.86
77153;BME280;66124;51.146;17.072;2023-02-11T04:35:50;101384.64;;;1.61;68.98
77153;BME280;66124;51.146;17.072;2023-02-11T04:38:19;101387.14;;;1.62;69.18
77153;BME280;66124;51.146;17.072;2023-02-11T04:40:49;101391.18;;;1.64;68.88
77153;BME280;66124;51.146;17.072;2023-02-11T04:43:19;101399.92;;;1.65;68.84
77153;BME280;66124;51.146;17.072;2023-02-11T04:45:48;101399.46;;;1.67;68.91
77153;BME280;66124;51.146;17.072;2023-02-11T04:48:17;101403.55;;;1.68;68.77
77153;BME280;66124;51.146;17.072;2023-02-11T04:50:47;101400.04;;;1.69;68.86
77153;BME280;66124;51.146;17.072;2023-02-11T04:53:16;101398.25;;;1.70;68.73
77153;BME280;66124;51.146;17.072;2023-02-11T04:55:49;101402.13;;;1.72;68.74
77153;BME280;66124;51.146;17.072;2023-02-11T04:58:19;101400.54;;;1.72;68.70
77153;BME280;66124;51.146;17.072;2023-02-11T05:00:49;101395.64;;;1.73;68.58
77153;BME280;66124;51.146;17.072;2023-02-11T05:03:18;101385.38;;;1.74;68.25
77153;BME280;66124;51.146;17.072;2023-02-11T05:05:47;101381.31;;;1.75;68.21
77153;BME280;66124;51.146;17.072;2023-02-11T05:08:17;101368.98;;;1.75;68.20
77153;BME280;66124;51.146;17.072;2023-02-11T05:10:47;101366.31;;;1.76;68.18
77153;BME280;66124;51.146;17.072;2023-02-11T05:13:16;101360.45;;;1.76;68.33
77153;BME280;66124;51.146;17.072;2023-02-11T05:15:44;101349.24;;;1.75;68.12
77153;BME280;66124;51.146;17.072;2023-02-11T05:26:44;101341.90;;;1.76;67.93
77153;BME280;66124;51.146;17.072;2023-02-11T05:29:14;101335.91;;;1.75;67.96
77153;BME280;66124;51.146;17.072;2023-02-11T05:31:43;101334.50;;;1.75;68.18
77153;BME280;66124;51.146;17.072;2023-02-11T05:34:12;101328.60;;;1.75;67.97
77153;BME280;66124;51.146;17.072;2023-02-11T05:36:42;101329.65;;;1.75;68.03
77153;BME280;66124;51.146;17.072;2023-02-11T05:39:11;101331.54;;;1.75;67.98
77153;BME280;66124;51.146;17.072;2023-02-11T05:41:40;101334.64;;;1.76;68.02
77153;BME280;66124;51.146;17.072;2023-02-11T05:44:10;101337.89;;;1.76;67.96
77153;BME280;66124;51.146;17.072;2023-02-11T05:46:39;101340.09;;;1.77;67.86
77153;BME280;66124;51.146;17.072;2023-02-11T05:49:08;101342.30;;;1.78;67.94
77153;BME280;66124;51.146;17.072;2023-02-11T05:51:38;101337.05;;;1.79;67.92
77153;BME280;66124;51.146;17.072;2023-02-11T05:54:07;101338.42;;;1.78;67.95
77153;BME280;66124;51.146;17.072;2023-02-11T05:56:37;101339.30;;;1.79;67.85
77153;BME280;66124;51.146;17.072;2023-02-11T05:59:06;101335.05;;;1.77;67.79
77153;BME280;66124;51.146;17.072;2023-02-11T06:01:35;101335.44;;;1.77;67.96
77153;BME280;66124;51.146;17.072;2023-02-11T06:04:05;101331.04;;;1.78;67.98
77153;BME280;66124;51.146;17.072;2023-02-11T06:06:35;101330.96;;;1.79;67.88
77153;BME280;66124;51.146;17.072;2023-02-11T06:09:04;101334.73;;;1.80;68.04
77153;BME280;66124;51.146;17.072;2023-02-11T06:11:34;101330.68;;;1.81;67.88
77153;BME280;66124;51.146;17.072;2023-02-11T06:14:03;101332.53;;;1.82;67.87
77153;BME280;66124;51.146;17.072;2023-02-11T06:16:32;101331.22;;;1.83;68.02
77153;BME280;66124;51.146;17.072;2023-02-11T06:19:02;101328.40;;;1.84;68.21
77153;BME280;66124;51.146;17.072;2023-02-11T06:21:31;101328.45;;;1.86;68.04
77153;BME280;66124;51.146;17.072;2023-02-11T06:24:01;101328.66;;;1.88;68.16
77153;BME280;66124;51.146;17.072;2023-02-11T06:26:30;101330.08;;;1.90;68.34
77153;BME280;66124;51.146;17.072;2023-02-11T06:29:01;101335.02;;;1.92;68.30
77153;BME280;66124;51.146;17.072;2023-02-11T06:31:30;101333.32;;;1.93;68.17
77153;BME280;66124;51.146;17.072;2023-02-11T06:34:00;101324.87;;;1.95;68.25
77153;BME280;66124;51.146;17.072;2023-02-11T06:36:28;101323.89;;;1.97;68.34
77153;BME280;66124;51.146;17.072;2023-02-11T06:38:56;101325.48;;;1.99;68.41
77153;BME280;66124;51.146;17.072;2023-02-11T06:47:16;101323.02;;;2.13;68.48
77153;BME280;66124;51.146;17.072;2023-02-11T06:49:45;101319.70;;;2.13;68.48
77153;BME280;66124;51.146;17.072;2023-02-11T06:52:15;101322.42;;;2.15;68.51
77153;BME280;66124;51.146;17.072;2023-02-11T06:54:45;101320.21;;;2.14;68.42
77153;BME280;66124;51.146;17.072;2023-02-11T06:57:14;101320.91;;;2.14;68.44
77153;BME280;66124;51.146;17.072;2023-02-11T06:59:45;101325.12;;;2.13;68.36
77153;BME280;66124;51.146;17.072;2023-02-11T07:02:14;101329.32;;;2.12;68.74
77153;BME280;66124;51.146;17.072;2023-02-11T07:04:44;101325.20;;;2.12;68.44
77153;BME280;66124;51.146;17.072;2023-02-11T07:07:13;101323.61;;;2.12;68.64
77153;BME280;66124;51.146;17.072;2023-02-11T07:09:43;101315.13;;;2.12;68.61
77153;BME280;66124;51.146;17.072;2023-02-11T07:12:12;101304.15;;;2.13;68.70
77153;BME280;66124;51.146;17.072;2023-02-11T07:14:42;101299.62;;;2.13;68.89
77153;BME280;66124;51.146;17.072;2023-02-11T07:17:11;101292.42;;;2.15;68.99
77153;BME280;66124;51.146;17.072;2023-02-11T07:19:41;101287.77;;;2.17;68.84
77153;BME280;66124;51.146;17.072;2023-02-11T07:22:10;101289.34;;;2.19;68.79
77153;BME280;66124;51.146;17.072;2023-02-11T07:24:40;101292.34;;;2.21;69.00
77153;BME280;66124;51.146;17.072;2023-02-11T07:27:09;101298.06;;;2.24;69.04
77153;BME280;66124;51.146;17.072;2023-02-11T07:29:40;101302.92;;;2.26;69.05
77153;BME280;66124;51.146;17.072;2023-02-11T07:32:10;101301.30;;;2.30;69.09
77153;BME280;66124;51.146;17.072;2023-02-11T07:34:39;101296.02;;;2.34;69.16
77153;BME280;66124;51.146;17.072;2023-02-11T07:37:09;101284.98;;;2.38;69.32
77153;BME280;66124;51.146;17.072;2023-02-11T07:39:38;101294.39;;;2.43;69.54
77153;BME280;66124;51.146;17.072;2023-02-11T07:42:08;101292.64;;;2.48;69.29
77153;BME280;66124;51.146;17.072;2023-02-11T07:44:37;101296.48;;;2.53;69.60
77153;BME280;66124;51.146;17.072;2023-02-11T07:47:06;101302.23;;;2.58;69.66
77153;BME280;66124;51.146;17.072;2023-02-11T07:49:36;101300.66;;;2.63;69.49
77153;BME280;66124;51.146;17.072;2023-02-11T07:52:05;101299.27;;;2.67;69.72
77153;BME280;66124;51.146;17.072;2023-02-11T07:54:35;101294.70;;;2.71;70.00
77153;BME280;66124;51.146;17.072;2023-02-11T07:57:04;101294.09;;;2.75;69.98
77153;BME280;66124;51.146;17.072;2023-02-11T07:59:32;101294.27;;;2.82;69.85
77153;BME280;66124;51.146;17.072;2023-02-11T08:09:33;101305.73;;;3.08;70.19
77153;BME280;66124;51.146;17.072;2023-02-11T08:12:03;101310.13;;;3.12;70.27
77153;BME280;66124;51.146;17.072;2023-02-11T08:14:33;101303.34;;;3.17;70.51
77153;BME280;66124;51.146;17.072;2023-02-11T08:17:02;101292.87;;;3.13;70.50
77153;BME280;66124;51.146;17.072;2023-02-11T08:19:31;101299.52;;;3.25;70.67
77153;BME280;66124;51.146;17.072;2023-02-11T08:22:02;101301.38;;;3.28;70.69
77153;BME280;66124;51.146;17.072;2023-02-11T08:24:31;101302.77;;;3.30;70.66
77153;BME280;66124;51.146;17.072;2023-02-11T08:27:01;101307.36;;;3.34;70.89
77153;BME280;66124;51.146;17.072;2023-02-11T08:29:30;101311.23;;;3.38;71.04
77153;BME280;66124;51.146;17.072;2023-02-11T08:31:59;101321.41;;;3.44;71.88
77153;BME280;66124;51.146;17.072;2023-02-11T08:34:29;101310.20;;;3.50;72.40
77153;BME280;66124;51.146;17.072;2023-02-11T08:36:58;101305.69;;;3.58;73.18
77153;BME280;66124;51.146;17.072;2023-02-11T08:39:27;101299.73;;;3.66;73.65
77153;BME280;66124;51.146;17.072;2023-02-11T08:41:57;101296.38;;;3.74;74.04
77153;BME280;66124;51.146;17.072;2023-02-11T08:44:26;101294.75;;;3.82;73.95
77153;BME280;66124;51.146;17.072;2023-02-11T08:46:55;101287.81;;;3.88;74.68
77153;BME280;66124;51.146;17.072;2023-02-11T08:49:25;101283.59;;;3.94;74.94
77153;BME280;66124;51.146;17.072;2023-02-11T08:51:54;101285.80;;;3.99;75.51
77153;BME280;66124;51.146;17.072;2023-02-11T08:54:23;101287.86;;;4.02;75.79
77153;BME280;66124;51.146;17.072;2023-02-11T08:56:53;101291.86;;;4.04;75.88
77153;BME280;66124;51.146;17.072;2023-02-11T08:59:22;101289.75;;;4.07;75.77
77153;BME280;66124;51.146;17.072;2023-02-11T09:01:52;101283.40;;;4.11;75.88
77153;BME280;66124;51.146;17.072;2023-02-11T09:04:21;101274.45;;;4.14;76.15
77153;BME280;66124;51.146;17.072;2023-02-11T09:06:50;101267.52;;;4.16;76.06
77153;BME280;66124;51.146;17.072;2023-02-11T09:09:20;101262.77;;;4.19;76.17
77153;BME280;66124;51.146;17.072;2023-02-11T09:11:49;101263.14;;;4.21;76.55
77153;BME280;66124;51.146;17.072;2023-02-11T09:14:20;101261.35;;;4.24;76.50
77153;BME280;66124;51.146;17.072;2023-02-11T09:16:50;101256.25;;;4.29;76.62
77153;BME280;66124;51.146;17.072;2023-02-11T09:19:21;101243.74;;;4.34;76.97
77153;BME280;66124;51.146;17.072;2023-02-11T09:21:48;101245.23;;;4.37;77.00
77153;BME280;66124;51.146;17.072;2023-02-11T09:32:19;101236.83;;;4.64;76.75
77153;BME280;66124;51.146;17.072;2023-02-11T09:34:49;101228.54;;;4.70;76.52
77153;BME280;66124;51.146;17.072;2023-02-11T09:37:18;101224.15;;;4.76;76.61
77153;BME280;66124;51.146;17.072;2023-02-11T09:39:48;101227.16;;;4.79;76.30
77153;BME280;66124;51.146;17.072;2023-02-11T09:42:39;101215.30;;;4.84;76.39
77153;BME280;66124;51.146;17.072;2023-02-11T09:45:17;101206.30;;;4.90;76.23
77153;BME280;66124;51.146;17.072;2023-02-11T09:47:51;101208.75;;;4.94;76.20
77153;BME280;66124;51.146;17.072;2023-02-11T09:50:28;101204.64;;;5.00;76.22
77153;BME280;66124;51.146;17.072;2023-02-11T09:53:01;101197.94;;;5.06;75.97
77153;BME280;66124;51.146;17.072;2023-02-11T09:55:34;101210.27;;;5.10;75.87
77153;BME280;66124;51.146;17.072;2023-02-11T09:58:06;101212.40;;;5.14;75.65
77153;BME280;66124;51.146;17.072;2023-02-11T10:00:39;101208.52;;;5.17;75.69
77153;BME280;66124;51.146;17.072;2023-02-11T10:06:24;101216.41;;;5.21;75.80
77153;BME280;66124;51.146;17.072;2023-02-11T10:09:05;101213.52;;;5.22;75.80
77153;BME280;66124;51.146;17.072;2023-02-11T10:11:50;101202.50;;;5.22;75.92
77153;BME280;66124;51.146;17.072;2023-02-11T10:14:33;101188.83;;;5.23;75.78
77153;BME280;66124;51.146;17.072;2023-02-11T10:17:17;101201.58;;;5.25;75.41
77153;BME280;66124;51.146;17.072;2023-02-11T10:20:00;101200.84;;;5.26;75.74
77153;BME280;66124;51.146;17.072;2023-02-11T10:22:35;101195.55;;;5.27;75.83
77153;BME280;66124;51.146;17.072;2023-02-11T10:25:19;101194.55;;;5.28;76.02
77153;BME280;66124;51.146;17.072;2023-02-11T10:27:50;101171.04;;;5.30;75.77
77153;BME280;66124;51.146;17.072;2023-02-11T10:30:27;101164.79;;;5.32;75.90
77153;BME280;66124;51.146;17.072;2023-02-11T10:33:01;101186.80;;;5.33;76.14
77153;BME280;66124;51.146;17.072;2023-02-11T10:35:32;101181.40;;;5.35;76.17
77153;BME280;66124;51.146;17.072;2023-02-11T10:38:02;101185.83;;;5.39;76.18
77153;BME280;66124;51.146;17.072;2023-02-11T10:40:32;101182.69;;;5.43;76.04
77153;BME280;66124;51.146;17.072;2023-02-11T10:43:00;101180.10;;;5.47;75.99
77153;BME280;66124;51.146;17.072;2023-02-11T10:45:31;101195.11;;;5.49;76.28
77153;BME280;66124;51.146;17.072;2023-02-11T10:48:40;101183.04;;;5.52;76.14
77153;BME280;66124;51.146;17.072;2023-02-11T10:51:16;101180.65;;;5.49;76.28
77153;BME280;66124;51.146;17.072;2023-02-11T10:53:48;101185.58;;;5.50;75.79
77153;BME280;66124;51.146;17.072;2023-02-11T10:56:24;101186.56;;;5.53;75.94
77153;BME280;66124;51.146;17.072;2023-02-11T10:58:59;101182.58;;;5.55;76.16
77153;BME280;66124;51.146;17.072;2023-02-11T11:01:44;101176.35;;;5.54;75.99
77153;BME280;66124;51.146;17.072;2023-02-11T11:04:35;101185.95;;;5.54;76.46
77153;BME280;66124;51.146;17.072;2023-02-11T11:07:19;101192.31;;;5.51;76.37
77153;BME280;66124;51.146;17.072;2023-02-11T11:09:52;101181.31;;;5.49;76.43
77153;BME280;66124;51.146;17.072;2023-02-11T11:12:40;101189.92;;;5.48;76.69
77153;BME280;66124;51.146;17.072;2023-02-11T11:15:20;101190.52;;;5.48;76.34
77153;BME280;66124;51.146;17.072;2023-02-11T11:17:59;101177.50;;;5.47;76.66
77153;BME280;66124;51.146;17.072;2023-02-11T11:20:37;101172.36;;;5.48;76.99
77153;BME280;66124;51.146;17.072;2023-02-11T11:23:16;101175.41;;;5.49;77.03
77153;BME280;66124;51.146;17.072;2023-02-11T11:25:59;101175.16;;;5.52;76.93
77153;BME280;66124;51.146;17.072;2023-02-11T11:28:31;101183.07;;;5.55;76.82
77153;BME280;66124;51.146;17.072;2023-02-11T11:31:03;101183.41;;;5.58;76.66
77153;BME280;66124;51.146;17.072;2023-02-11T11:33:36;101176.38;;;5.62;76.78
77153;BME280;66124;51.146;17.072;2023-02-11T11:36:08;101168.57;;;5.69;76.51
77153;BME280;66124;51.146;17.072;2023-02-11T11:38:44;101167.04;;;5.72;76.63
77153;BME280;66124;51.146;17.072;2023-02-11T11:41:17;101161.38;;;5.77;76.51
77153;BME280;66124;51.146;17.072;2023-02-11T11:43:59;101157.16;;;5.85;76.47
77153;BME280;66124;51.146;17.072;2023-02-11T11:46:32;101155.06;;;5.91;76.16
77153;BME280;66124;51.146;17.072;2023-02-11T11:49:19;101181.39;;;5.93;76.07
77153;BME280;66124;51.146;17.072;2023-02-11T11:51:55;101181.25;;;5.93;75.92
77153;BME280;66124;51.146;17.072;2023-02-11T11:54:28;101168.74;;;5.92;75.99
77153;BME280;66124;51.146;17.072;2023-02-11T11:56:59;101165.95;;;5.92;76.01
77153;BME280;66124;51.146;17.072;2023-02-11T11:59:28;101159.25;;;5.91;75.99
77153;BME280;66124;51.146;17.072;2023-02-11T12:12:33;101145.11;;;5.89;76.20
77153;BME280;66124;51.146;17.072;2023-02-11T12:15:19;101142.83;;;5.87;76.03
77153;BME280;66124;51.146;17.072;2023-02-11T12:18:04;101132.92;;;5.84;76.10
77153;BME280;66124;51.146;17.072;2023-02-11T12:20:45;101125.80;;;5.84;76.20
77153;BME280;66124;51.146;17.072;2023-02-11T12:23:39;101112.23;;;5.83;76.31
77153;BME280;66124;51.146;17.072;2023-02-11T12:26:15;101115.89;;;5.83;76.41
77153;BME280;66124;51.146;17.072;2023-02-11T12:28:57;101126.11;;;5.85;76.38
77153;BME280;66124;51.146;17.072;2023-02-11T12:31:38;101127.15;;;5.87;76.19
77153;BME280;66124;51.146;17.072;2023-02-11T12:34:29;101114.96;;;5.80;76.27
77153;BME280;66124;51.146;17.072;2023-02-11T12:37:06;101118.10;;;5.88;75.89
77153;BME280;66124;51.146;17.072;2023-02-11T12:39:47;101107.86;;;5.90;75.79
77153;BME280;66124;51.146;17.072;2023-02-11T12:42:32;101103.11;;;5.88;75.92
77153;BME280;66124;51.146;17.072;2023-02-11T12:45:19;101092.63;;;5.88;76.12
77153;BME280;66124;51.146;17.072;2023-02-11T12:48:02;101090.98;;;5.87;75.91
77153;BME280;66124;51.146;17.072;2023-02-11T12:50:38;101085.52;;;5.86;76.04
77153;BME280;66124;51.146;17.072;2023-02-11T12:53:24;101095.35;;;5.87;75.85
77153;BME280;66124;51.146;17.072;2023-02-11T12:56:02;101098.91;;;5.86;76.06
77153;BME280;66124;51.146;17.072;2023-02-11T12:58:35;101110.67;;;5.85;75.85
77153;BME280;66124;51.146;17.072;2023-02-11T13:01:11;101106.12;;;5.83;75.94
77153;BME280;66124;51.146;17.072;2023-02-11T13:03:47;101104.80;;;5.80;75.93
77153;BME280;66124;51.146;17.072;2023-02-11T13:06:21;101113.11;;;5.79;76.22
77153;BME280;66124;51.146;17.072;2023-02-11T13:08:56;101115.94;;;5.76;76.08
77153;BME280;66124;51.146;17.072;2023-02-11T13:11:29;101109.79;;;5.75;76.33
77153;BME280;66124;51.146;17.072;2023-02-11T13:14:05;101101.22;;;5.75;76.44
77153;BME280;66124;51.146;17.072;2023-02-11T13:16:41;101099.38;;;5.76;76.42
77153;BME280;66124;51.146;17.072;2023-02-11T13:19:20;101101.51;;;5.78;76.39
77153;BME280;66124;51.146;17.072;2023-02-11T13:21:59;101109.83;;;5.79;76.66
77153;BME280;66124;51.146;17.072;2023-02-11T13:24:30;101116.16;;;5.78;76.56
77153;BME280;66124;51.146;17.072;2023-02-11T13:33:02;101107.89;;;5.79;76.42
77153;BME280;66124;51.146;17.072;2023-02-11T13:35:33;101112.37;;;5.78;76.44
77153;BME280;66124;51.146;17.072;2023-02-11T13:38:04;101106.18;;;5.78;76.33
77153;BME280;66124;51.146;17.072;2023-02-11T13:40:36;101105.67;;;5.78;76.55
77153;BME280;66124;51.146;17.072;2023-02-11T13:43:05;101091.71;;;5.78;76.60
77153;BME280;66124;51.146;17.072;2023-02-11T13:45:39;101087.05;;;5.75;76.47
77153;BME280;66124;51.146;17.072;2023-02-11T13:48:18;101088.83;;;5.75;76.81
77153;BME280;66124;51.146;17.072;2023-02-11T13:50:50;101092.00;;;5.75;76.57
77153;BME280;66124;51.146;17.072;2023-02-11T13:53:21;101090.00;;;5.76;76.63
77153;BME280;66124;51.146;17.072;2023-02-11T13:56:03;101095.75;;;5.76;76.59
77153;BME280;66124;51.146;17.072;2023-02-11T13:58:36;101099.02;;;5.76;76.68
77153;BME280;66124;51.146;17.072;2023-02-11T14:01:06;101095.55;;;5.76;76.84
77153;BME280;66124;51.146;17.072;2023-02-11T14:03:38;101100.64;;;5.76;76.66
77153;BME280;66124;51.146;17.072;2023-02-11T14:06:16;101089.71;;;5.75;76.81
77153;BME280;66124;51.146;17.072;2023-02-11T14:11:47;101097.16;;;5.78;77.02
77153;BME280;66124;51.146;17.072;2023-02-11T14:14:27;101096.73;;;5.75;77.13
77153;BME280;66124;51.146;17.072;2023-02-11T14:17:27;101107.96;;;5.74;77.15
77153;BME280;66124;51.146;17.072;2023-02-11T14:19:57;101108.04;;;5.71;77.45
77153;BME280;66124;51.146;17.072;2023-02-11T14:22:29;101123.42;;;5.68;77.65
77153;BME280;66124;51.146;17.072;2023-02-11T14:25:01;101125.33;;;5.66;77.76
77153;BME280;66124;51.146;17.072;2023-02-11T14:27:30;101129.94;;;5.66;77.51
77153;BME280;66124;51.146;17.072;2023-02-11T14:30:12;101142.06;;;5.62;77.94
77153;BME280;66124;51.146;17.072;2023-02-11T14:32:55;101143.31;;;5.59;78.06
77153;BME280;66124;51.146;17.072;2023-02-11T14:35:37;101142.64;;;5.57;78.13